sim
Sign-in with your pilot id or email,
or register
Callsign
Passwort

Schedule Details

Flight Number: OEO2218
Departure: Zurich Airport (LSZH) at 12:50
Arrival: Gothenburg Landvetter Airport (ESGG) at 14:55

Weather Information
Getting current METAR information for LSZH 251320Z VRB01KT CAVOK 15/09 Q1009 NOSIG
Getting current METAR information for ESGG 251250Z 20019KT 9000 -RA BKN008 11/10 Q0998

Schedule Frequency

Route Map